Chase, Kansas
Current Conditions -  °F | °C
As of 7:35 PM on Sunday 21 Dec 2014 (Local Time) from KGBD Reporting Station
Broken Clouds Broken Clouds  
Wind Chill: 36°   Ceiling: 2500
Heat Index: 43°   Visibility: 5mi
Dew Point: 37°   Wind: 14mph
Humidity: 81%   Direction: 170°S
Pressure: 29.63"   Gusts: NA
Location:  38.36°N, 98.35°W
Report Text: KGBD 220135Z AUTO 17012KT 5SM FEW010 BKN025 06/03 A2963 RMK AO1
Loading
Personal Weather Stations






























Interactive Weather Map New forecast layout! Learn more

10-Day Weather Forecast

Advertisements
Track Severe Weather on mobile